Time;durP1;ratioP1;P1;durP2;ratioP2;P2;SDS_P1;SDS_P2;PMS_P1;PMS_P2;Temp;Humidity;BMP_temperature;BMP_pressure;BME280_temperature;BME280_humidity;BME280_pressure;Samples;Min_cycle;Max_cycle;Signal;HPM_P1;HPM_P2
2022/12/23 00:02:57;;;;;;;22.20;11.50;;;;;;;5.52;100.00;99491.23;3452470;84;98798;-85
2022/12/23 00:07:58;;;;;;;22.07;12.47;;;;;;;5.50;100.00;99485.36;3457421;84;31706;-85
2022/12/23 00:18:18;;;;;;;21.77;11.83;;;;;;;5.44;100.00;99473.18;3460057;84;32510;-85
2022/12/23 00:23:19;;;;;;;24.50;13.13;;;;;;;5.41;100.00;99479.36;3455016;82;98606;-85
2022/12/23 00:28:23;;;;;;;20.40;11.60;;;;;;;5.38;100.00;99477.38;3460808;84;32455;-86
2022/12/23 00:33:28;;;;;;;27.48;13.40;;;;;;;5.35;100.00;99471.27;3462652;82;99148;-84
2022/12/23 00:43:48;;;;;;;24.20;12.82;;;;;;;5.33;100.00;99474.15;3490350;82;98910;-84
2022/12/23 00:54:08;;;;;;;22.62;11.73;;;;;;;5.26;100.00;99479.50;3490438;83;98855;-85
2022/12/23 00:59:09;;;;;;;21.50;10.77;;;;;;;5.23;100.00;99467.37;3498182;83;31605;-84
2022/12/23 01:09:34;;;;;;;20.72;11.35;;;;;;;5.17;100.00;99454.39;3497512;83;31951;-84
2022/12/23 01:14:35;;;;;;;18.60;10.80;;;;;;;5.13;100.00;99443.43;3492250;82;98720;-84
2022/12/23 01:19:37;;;;;;;21.77;10.80;;;;;;;5.10;100.00;99450.99;3498393;83;31577;-85
2022/12/23 01:24:38;;;;;;;19.82;10.25;;;;;;;5.10;100.00;99452.36;3491567;83;98432;-84
2022/12/23 01:29:38;;;;;;;19.23;11.10;;;;;;;5.03;100.00;99450.85;3497784;83;31643;-84
2022/12/23 01:34:41;;;;;;;21.73;11.67;;;;;;;5.00;100.00;99448.07;3477670;83;98514;-84
2022/12/23 01:39:42;;;;;;;23.80;12.60;;;;;;;4.98;100.00;99442.20;3358787;86;31617;-86
2022/12/23 01:44:54;;;;;;;22.37;10.93;;;;;;;5.00;100.00;99436.60;3456009;83;98674;-84
2022/12/23 01:50:32;;;;;;;21.40;11.33;;;;;;;4.99;100.00;99437.76;3461502;84;33198;-84
2022/12/23 01:55:46;;;;;;;33.03;15.90;;;;;;;5.00;100.00;99438.52;3454870;84;98611;-85
2022/12/23 02:12:15;;;;;;;37.70;17.70;;;;;;;5.04;100.00;99438.81;3422914;84;98799;-84
2022/12/23 02:17:49;;;;;;;37.07;18.90;;;;;;;5.08;100.00;99450.55;3461758;84;31841;-84
2022/12/23 02:23:16;;;;;;;36.77;19.02;;;;;;;5.09;100.00;99460.33;3451412;83;98827;-85
2022/12/23 02:28:28;;;;;;;39.58;19.15;;;;;;;5.11;100.00;99455.29;3460325;84;30375;-84
2022/12/23 02:33:43;;;;;;;39.75;20.25;;;;;;;5.06;100.00;99427.53;3457092;84;98816;-84
2022/12/23 02:39:14;;;;;;;43.68;22.87;;;;;;;5.12;100.00;99424.73;3511575;84;32410;-83
2022/12/23 02:44:30;;;;;;;46.00;22.63;;;;;;;5.13;100.00;99421.62;3505963;83;99146;-84
2022/12/23 02:49:35;;;;;;;43.48;20.75;;;;;;;5.14;100.00;99421.05;3512207;83;33374;-84
2022/12/23 02:54:42;;;;;;;47.80;22.20;;;;;;;5.14;100.00;99423.19;3507968;83;98720;-85
2022/12/23 02:59:48;;;;;;;;;;;;;;;5.15;100.00;99429.44;3516416;83;26133;-85
2022/12/23 03:04:49;;;;;;;50.87;24.70;;;;;;;5.14;100.00;99440.91;3504809;82;84866;-84
2022/12/23 03:10:24;;;;;;;49.17;22.77;;;;;;;5.14;100.00;99427.28;3513474;82;31674;-85
2022/12/23 03:15:40;;;;;;;52.50;23.60;;;;;;;5.16;100.00;99443.28;3505711;82;98679;-85
2022/12/23 03:21:11;;;;;;;52.23;24.27;;;;;;;5.17;100.00;99440.76;3502232;83;29497;-85
2022/12/23 03:26:35;;;;;;;49.95;22.17;;;;;;;5.20;100.00;99441.41;3508557;83;32945;-84
2022/12/23 03:31:39;;;;;;;53.80;23.70;;;;;;;5.22;100.00;99427.62;3499429;83;98730;-84
2022/12/23 03:36:46;;;;;;;48.77;22.10;;;;;;;5.27;100.00;99436.05;3512694;83;27484;-84
2022/12/23 03:41:52;;;;;;;46.08;21.42;;;;;;;5.29;100.00;99419.54;3507028;82;99112;-84
2022/12/23 03:47:01;;;;;;;53.10;22.73;;;;;;;5.33;100.00;99409.48;3513664;84;28215;-84
2022/12/23 03:52:14;;;;;;;53.53;21.67;;;;;;;5.35;100.00;99404.43;3494959;83;98813;-85
2022/12/23 03:57:15;;;;;;;48.13;23.73;;;;;;;5.38;100.00;99400.98;3513030;83;31031;-84
2022/12/23 04:02:57;;;;;;;53.33;20.47;;;;;;;5.39;100.00;99407.20;3506805;82;98492;-86
2022/12/23 04:08:09;;;;;;;44.65;18.07;;;;;;;5.42;100.00;99405.13;3508472;83;32401;-84
2022/12/23 04:13:10;;;;;;;39.45;17.35;;;;;;;5.45;100.00;99397.58;3504891;82;98619;-86
2022/12/23 04:18:11;;;;;;;45.50;18.53;;;;;;;5.43;100.00;99399.30;3498085;83;31737;-85
2022/12/23 04:23:12;;;;;;;40.10;18.03;;;;;;;5.44;100.00;99392.69;3507150;82;98679;-85
2022/12/23 04:28:13;;;;;;;48.00;17.73;;;;;;;5.43;100.00;99410.22;3513933;83;31736;-85
2022/12/23 04:33:13;;;;;;;38.90;15.67;;;;;;;5.43;100.00;99412.95;3507932;83;98390;-85
2022/12/23 04:38:14;;;;;;;32.83;16.47;;;;;;;5.42;100.00;99392.28;3499355;83;31620;-85
2022/12/23 04:43:15;;;;;;;38.90;15.33;;;;;;;5.44;100.00;99393.25;3491751;83;98804;-85
2022/12/23 04:48:17;;;;;;;36.30;14.90;;;;;;;5.44;100.00;99393.25;3497994;83;31305;-86
2022/12/23 04:53:17;;;;;;;35.53;15.17;;;;;;;5.44;100.00;99390.52;3491280;82;98925;-85
2022/12/23 04:58:20;;;;;;;29.73;14.07;;;;;;;5.46;100.00;99389.60;3498244;83;30780;-85
2022/12/23 05:03:21;;;;;;;31.05;14.85;;;;;;;5.48;100.00;99382.63;3490714;82;98927;-85
2022/12/23 05:08:22;;;;;;;34.17;14.57;;;;;;;5.50;100.00;99369.39;3498156;83;35388;-85
2022/12/23 05:13:23;;;;;;;38.73;16.03;;;;;;;5.53;100.00;99365.94;3491967;83;98892;-85
2022/12/23 05:18:24;;;;;;;35.03;17.23;;;;;;;5.57;100.00;99363.25;3500425;83;35369;-86
2022/12/23 05:23:25;;;;;;;34.53;17.30;;;;;;;5.58;100.00;99357.43;3491670;83;98846;-85
2022/12/23 05:28:26;;;;;;;35.43;18.07;;;;;;;5.61;100.00;99354.52;3498390;83;34777;-86
2022/12/23 05:33:28;;;;;;;38.47;19.00;;;;;;;5.62;100.00;99347.92;3491382;82;98787;-85
2022/12/23 05:38:29;;;;;;;36.47;18.37;;;;;;;5.62;100.00;99346.56;3477198;83;34865;-85
2022/12/23 05:43:30;;;;;;;38.93;19.27;;;;;;;5.67;100.00;99355.79;3496494;82;99017;-85
2022/12/23 05:48:31;;;;;;;45.27;20.90;;;;;;;5.70;100.00;99359.13;3502797;83;34860;-86
2022/12/23 05:53:32;;;;;;;49.10;23.07;;;;;;;5.73;100.00;99361.13;3495121;83;98637;-85
2022/12/23 05:58:32;;;;;;;42.43;20.60;;;;;;;5.73;100.00;99370.69;3502505;83;34989;-86
2022/12/23 06:03:33;;;;;;;50.63;22.50;;;;;;;5.74;100.00;99364.83;3493581;83;98541;-86
2022/12/23 06:08:34;;;;;;;48.10;22.83;;;;;;;5.75;100.00;99360.97;3473663;83;26377;-86
2022/12/23 06:13:35;;;;;;;40.90;21.07;;;;;;;5.72;100.00;99354.10;3494530;83;98806;-86
2022/12/23 06:18:36;;;;;;;46.53;23.07;;;;;;;5.69;100.00;99358.36;3504341;83;32439;-86
2022/12/23 06:23:36;;;;;;;46.10;22.80;;;;;;;5.72;100.00;99359.56;3492689;83;98900;-86
2022/12/23 06:28:37;;;;;;;40.03;21.10;;;;;;;5.74;100.00;99358.59;3501614;83;33113;-86
2022/12/23 06:33:38;;;;;;;38.70;19.33;;;;;;;5.74;100.00;99362.09;3494829;83;98831;-85
2022/12/23 06:38:39;;;;;;;61.10;32.47;;;;;;;5.73;100.00;99361.13;3482975;83;32987;-85
2022/12/23 06:43:40;;;;;;;79.62;38.42;;;;;;;5.68;100.00;99358.72;3499441;83;98859;-85
2022/12/23 06:48:41;;;;;;;61.30;28.03;;;;;;;5.68;100.00;99360.08;3507107;83;28809;-84
2022/12/23 06:53:41;;;;;;;56.07;24.13;;;;;;;5.66;100.00;99353.63;3496048;84;98770;-85
2022/12/23 06:58:42;;;;;;;59.67;27.73;;;;;;;5.65;100.00;99353.98;3504662;83;26331;-85
2022/12/23 07:03:43;;;;;;;45.17;22.80;;;;;;;5.63;100.00;99345.39;3504060;82;98595;-85
2022/12/23 07:08:44;;;;;;;42.37;21.67;;;;;;;5.61;100.00;99332.11;3507989;82;26416;-84
2022/12/23 07:13:46;;;;;;;42.20;21.33;;;;;;;5.64;100.00;99327.86;3501709;82;98810;-84
2022/12/23 07:18:46;;;;;;;36.90;19.27;;;;;;;5.68;100.00;99329.47;3509413;82;25822;-84
2022/12/23 07:23:47;;;;;;;35.90;20.67;;;;;;;5.67;100.00;99328.49;3501638;83;98498;-84
2022/12/23 07:28:48;;;;;;;36.73;20.30;;;;;;;5.67;100.00;99325.17;3508483;83;26532;-85
2022/12/23 07:33:49;;;;;;;38.13;20.88;;;;;;;5.70;100.00;99318.98;3503217;82;98494;-85
2022/12/23 07:38:50;;;;;;;49.80;23.83;;;;;;;5.69;100.00;99313.32;3497098;83;33227;-85
2022/12/23 07:43:51;;;;;;;52.17;23.93;;;;;;;5.71;100.00;99310.20;3486249;83;98533;-85
2022/12/23 07:48:52;;;;;;;57.07;26.17;;;;;;;5.69;100.00;99290.69;3494173;83;33195;-84
2022/12/23 07:53:53;;;;;;;53.17;24.73;;;;;;;5.70;100.00;99298.52;3487253;83;99029;-83
2022/12/23 07:58:54;;;;;;;43.33;22.80;;;;;;;5.72;100.00;99295.41;3493434;84;33294;-83
2022/12/23 08:03:55;;;;;;;43.78;22.73;;;;;;;5.73;100.00;99287.42;3489127;83;99030;-87
2022/12/23 08:08:56;;;;;;;42.83;23.43;;;;;;;5.75;100.00;99287.83;3495718;83;33803;-84
2022/12/23 08:13:57;;;;;;;41.68;20.95;;;;;;;5.78;100.00;99287.10;3489672;83;98459;-84
2022/12/23 08:18:57;;;;;;;43.87;25.07;;;;;;;5.81;100.00;99288.53;3495525;83;33239;-84
2022/12/23 08:24:00;;;;;;;42.83;21.87;;;;;;;5.81;100.00;99294.56;3489493;82;98564;-84
2022/12/23 08:29:01;;;;;;;44.55;22.37;;;;;;;5.86;100.00;99284.67;3494094;83;32893;-84
2022/12/23 08:34:02;;;;;;;51.43;25.80;;;;;;;5.87;100.00;99284.31;3489135;82;98683;-83
2022/12/23 08:39:07;;;;;;;44.20;23.20;;;;;;;5.89;100.00;99289.41;3494230;83;31682;-84
2022/12/23 08:44:09;;;;;;;46.70;22.83;;;;;;;5.89;100.00;99287.44;3488630;83;98463;-84
2022/12/23 08:49:10;;;;;;;45.63;23.03;;;;;;;5.86;100.00;99281.95;3471064;83;27848;-84
2022/12/23 08:54:12;;;;;;;41.77;21.73;;;;;;;5.90;100.00;99278.08;3492596;83;98649;-85
2022/12/23 08:59:15;;;;;;;38.00;20.10;;;;;;;5.96;100.00;99275.82;3496003;83;32175;-84
2022/12/23 09:04:16;;;;;;;30.80;17.93;;;;;;;6.00;100.00;99273.32;3490461;82;98760;-84
2022/12/23 09:09:17;;;;;;;33.73;17.97;;;;;;;6.05;100.00;99275.72;3493469;83;31627;-84
2022/12/23 09:14:18;;;;;;;39.37;21.53;;;;;;;6.10;100.00;99270.48;3488468;82;98588;-85
2022/12/23 09:19:19;;;;;;;40.37;22.10;;;;;;;6.15;100.00;99272.88;3495644;83;31624;-84
2022/12/23 09:24:20;;;;;;;40.97;21.63;;;;;;;6.18;100.00;99263.38;3486885;82;98838;-84
2022/12/23 09:29:21;;;;;;;34.90;19.63;;;;;;;6.25;100.00;99259.34;3492627;83;32032;-85
2022/12/23 09:34:21;;;;;;;35.07;19.87;;;;;;;6.27;100.00;99262.48;3484632;83;98505;-84
2022/12/23 09:39:23;;;;;;;41.57;22.63;;;;;;;6.33;100.00;99255.50;3463039;83;32328;-85
2022/12/23 09:44:38;;;;;;;61.73;29.17;;;;;;;6.36;100.00;99250.66;3449712;84;98714;-85
2022/12/23 09:49:49;;;;;;;56.00;27.50;;;;;;;6.41;100.00;99250.89;3456247;84;28842;-84
2022/12/23 09:54:53;;;;;;;43.00;22.57;;;;;;;6.44;100.00;99254.25;3443075;84;98643;-85
2022/12/23 10:00:16;;;;;;;44.67;23.42;;;;;;;6.47;100.00;99254.27;3456195;84;30497;-85
2022/12/23 10:05:56;;;;;;;43.60;24.60;;;;;;;6.54;100.00;99263.13;3446312;84;98619;-85
2022/12/23 10:11:01;;;;;;;46.03;24.13;;;;;;;6.58;100.00;99270.75;3453126;84;98885;-85
2022/12/23 10:16:06;;;;;;;42.03;22.90;;;;;;;6.62;100.00;99271.56;3457971;84;29432;-85
2022/12/23 10:21:31;;;;;;;47.17;23.13;;;;;;;6.67;100.00;99269.86;3453522;83;98757;-84
2022/12/23 10:26:38;;;;;;;39.23;21.47;;;;;;;6.71;100.00;99272.05;3456963;84;28000;-85
2022/12/23 10:32:05;;;;;;;42.20;22.07;;;;;;;6.77;100.00;99273.26;3450248;84;98903;-85
2022/12/23 10:37:15;;;;;;;42.70;24.82;;;;;;;6.81;100.00;99269.98;3453121;84;26501;-86
2022/12/23 10:42:30;;;;;;;39.37;22.03;;;;;;;6.85;100.00;99268.03;3449209;83;98730;-85
2022/12/23 10:47:54;;;;;;;39.88;20.77;;;;;;;6.89;100.00;99275.69;3457165;84;30691;-85
2022/12/23 10:53:00;;;;;;;37.73;20.75;;;;;;;6.96;100.00;99282.56;3449079;82;98692;-86
2022/12/23 10:58:12;;;;;;;37.73;19.77;;;;;;;6.99;100.00;99283.95;3456523;84;26221;-86
2022/12/23 11:03:30;;;;;;;34.83;19.30;;;;;;;7.01;100.00;99283.01;3448052;84;99205;-86
2022/12/23 11:08:31;;;;;;;35.35;18.75;;;;;;;7.05;100.00;99294.77;3459620;84;31675;-86
2022/12/23 11:13:39;;;;;;;40.30;21.83;;;;;;;7.11;100.00;99292.44;3451415;84;98748;-87
2022/12/23 11:19:03;;;;;;;40.78;22.40;;;;;;;7.16;100.00;99287.41;3457619;84;32255;-87
2022/12/23 11:24:17;;;;;;;35.25;18.20;;;;;;;7.20;100.00;99299.14;3447475;83;98475;-86
2022/12/23 11:29:32;;;;;;;34.40;18.70;;;;;;;7.22;100.00;99289.19;3432696;84;29828;-87
2022/12/23 11:34:36;;;;;;;37.48;19.35;;;;;;;7.22;100.00;99295.45;3451710;83;98712;-86
2022/12/23 11:39:37;;;;;;;40.23;21.07;;;;;;;7.27;100.00;99299.78;3480192;83;32392;-87
2022/12/23 11:44:51;;;;;;;37.40;19.47;;;;;;;7.26;100.00;99300.34;3468334;83;98849;-87
2022/12/23 11:49:56;;;;;;;36.23;18.73;;;;;;;7.28;100.00;99305.45;3491583;83;27425;-86
2022/12/23 11:55:00;;;;;;;33.02;16.30;;;;;;;7.32;100.00;99314.47;3487745;83;98453;-87
2022/12/23 12:00:06;;;;;;;35.10;17.60;;;;;;;7.26;100.00;99326.34;3492666;83;28117;-86
2022/12/23 12:05:30;;;;;;;31.87;14.93;;;;;;;7.26;100.00;99329.68;3491251;83;98338;-87
2022/12/23 12:10:34;;;;;;;32.63;15.63;;;;;;;7.23;100.00;99332.59;3494647;83;26299;-86
2022/12/23 12:15:49;;;;;;;35.57;16.60;;;;;;;7.24;100.00;99342.94;3492542;82;98516;-87
2022/12/23 12:20:58;;;;;;;33.37;16.23;;;;;;;7.24;100.00;99356.62;3493072;83;28802;-87
2022/12/23 12:26:06;;;;;;;34.50;17.05;;;;;;;7.22;100.00;99353.49;3494590;83;31414;-86
2022/12/23 12:31:34;;;;;;;37.53;17.67;;;;;;;7.22;100.00;99353.49;3488382;82;98701;-88
2022/12/23 12:37:12;;;;;;;40.43;19.83;;;;;;;7.19;100.00;99361.88;3491666;83;28806;-87
2022/12/23 12:42:21;;;;;;;40.83;20.12;;;;;;;7.19;100.00;99365.98;3499570;83;98455;-87
2022/12/23 12:47:27;;;;;;;47.70;23.20;;;;;;;7.19;100.00;99361.88;3500493;83;27168;-87
2022/12/23 12:52:33;;;;;;;51.37;22.48;;;;;;;7.19;100.00;99359.14;3499017;82;98964;-86
2022/12/23 12:57:35;;;;;;;44.70;20.70;;;;;;;7.20;100.00;99352.50;3507609;83;26528;-87
2022/12/23 13:03:08;;;;;;;42.23;19.40;;;;;;;7.21;100.00;99363.64;3503406;82;98970;-87
2022/12/23 13:08:42;;;;;;;43.92;19.60;;;;;;;7.22;100.00;99372.64;3505709;82;31717;-88
2022/12/23 13:14:06;;;;;;;43.98;22.93;;;;;;;7.19;100.00;99395.31;3505684;82;98778;-87
2022/12/23 13:19:25;;;;;;;46.28;20.55;;;;;;;7.17;100.00;99403.89;3509984;83;30055;-87
2022/12/23 13:25:10;;;;;;;41.33;19.15;;;;;;;7.17;100.00;99403.89;3500321;83;98503;-88
2022/12/23 13:30:16;;;;;;;44.00;20.10;;;;;;;7.20;100.00;99407.22;3497575;83;31653;-87
2022/12/23 13:35:56;;;;;;;43.52;19.05;;;;;;;7.17;100.00;99400.36;3495867;83;98934;-89
2022/12/23 13:41:18;;;;;;;38.07;18.23;;;;;;;7.19;100.00;99387.10;3482987;83;98939;-86
2022/12/23 13:46:44;;;;;;;38.90;17.62;;;;;;;7.18;100.00;99384.94;3509402;82;31083;-87
2022/12/23 13:51:53;;;;;;;44.40;18.63;;;;;;;7.19;100.00;99393.94;3501822;82;98588;-88
2022/12/23 13:57:07;;;;;;;35.57;18.27;;;;;;;7.11;100.00;99386.83;3505607;83;27444;-88
2022/12/23 14:02:39;;;;;;;33.63;16.80;;;;;;;7.13;100.00;99407.17;3501273;83;98646;-88
2022/12/23 14:07:43;;;;;;;38.87;18.80;;;;;;;7.13;100.00;99424.16;3503408;82;28868;-88
2022/12/23 14:12:46;;;;;;;36.70;17.52;;;;;;;7.08;100.00;99434.08;3495871;82;98500;-88
2022/12/23 14:18:13;;;;;;;37.47;17.60;;;;;;;7.09;100.00;99452.86;3509830;82;26421;-88
2022/12/23 14:23:44;;;;;;;34.67;16.32;;;;;;;7.06;100.00;99444.05;3499686;82;98899;-87
2022/12/23 14:28:59;;;;;;;42.10;19.90;;;;;;;7.03;100.00;99453.00;3505446;83;32853;-88
2022/12/23 14:34:21;;;;;;;36.80;17.92;;;;;;;6.99;100.00;99452.77;3501696;83;98724;-87
2022/12/23 14:39:32;;;;;;;41.58;20.72;;;;;;;6.96;100.00;99452.14;3500658;83;30523;-88
2022/12/23 14:44:42;;;;;;;36.57;18.70;;;;;;;6.93;100.00;99459.15;3486555;83;98716;-87
2022/12/23 14:49:43;;;;;;;35.55;16.70;;;;;;;6.92;100.00;99465.02;3493941;83;32088;-87
2022/12/23 14:54:44;;;;;;;36.77;18.87;;;;;;;6.86;100.00;99467.29;3486823;82;98643;-87
2022/12/23 15:00:00;;;;;;;43.33;19.90;;;;;;;6.86;100.00;99482.90;3487791;83;34795;-88
2022/12/23 15:05:01;;;;;;;;;;;;;;;6.80;100.00;99474.27;3487917;82;98393;-88
2022/12/23 15:10:08;;;;;;;35.93;18.50;;;;;;;6.79;100.00;99483.63;3493812;83;34870;-87
2022/12/23 15:15:23;;;;;;;57.62;30.35;;;;;;;6.75;100.00;99484.16;3486799;83;99041;-88
2022/12/23 15:20:25;;;;;;;50.20;25.83;;;;;;;6.75;100.00;99469.70;3496199;83;26226;-87
2022/12/23 15:25:32;;;;;;;48.17;24.87;;;;;;;6.68;100.00;99480.56;3482736;83;98732;-87
2022/12/23 15:30:39;;;;;;;50.60;25.32;;;;;;;6.71;100.00;99470.26;3492753;83;31056;-88
2022/12/23 15:35:40;;;;;;;61.53;27.42;;;;;;;6.72;100.00;99478.06;3487564;83;98484;-85
2022/12/23 15:40:41;;;;;;;76.30;37.13;;;;;;;6.68;100.00;99474.52;3455871;84;35622;-86
2022/12/23 15:45:42;;;;;;;69.70;34.93;;;;;;;6.61;100.00;99476.39;3430349;84;98642;-85
2022/12/23 15:50:43;;;;;;;57.80;30.93;;;;;;;6.58;100.00;99482.59;3456311;84;35908;-86
2022/12/23 15:55:46;;;;;;;58.07;28.70;;;;;;;6.56;100.00;99476.15;3450811;84;98594;-86
2022/12/23 16:00:56;;;;;;;64.90;30.60;;;;;;;6.55;100.00;99467.72;3456003;84;30555;-86
2022/12/23 16:06:27;;;;;;;60.60;29.13;;;;;;;6.56;100.00;99471.25;3458128;84;26287;-87
2022/12/23 16:12:02;;;;;;;42.60;21.37;;;;;;;6.55;100.00;99475.92;3451354;82;98537;-86
2022/12/23 16:17:12;;;;;;;48.02;23.25;;;;;;;6.53;100.00;99482.34;3457989;84;30135;-86
2022/12/23 16:22:26;;;;;;;40.60;20.65;;;;;;;6.49;100.00;99486.98;3453236;84;98757;-87
2022/12/23 16:27:41;;;;;;;40.03;19.55;;;;;;;6.47;100.00;99480.31;3454215;84;31477;-87
2022/12/23 16:32:55;;;;;;;44.08;21.70;;;;;;;6.43;100.00;99475.41;3448110;84;98880;-87
2022/12/23 16:38:16;;;;;;;40.20;19.75;;;;;;;6.37;100.00;99465.94;3457840;84;32176;-86
2022/12/23 16:43:18;;;;;;;45.65;22.32;;;;;;;6.32;100.00;99467.06;3503014;83;98628;-87
2022/12/23 16:48:37;;;;;;;45.48;23.98;;;;;;;6.31;100.00;99474.25;3507997;84;30417;-86
2022/12/23 16:53:38;;;;;;;44.93;22.57;;;;;;;6.34;100.00;99476.25;3499508;82;98545;-89
2022/12/23 16:58:40;;;;;;;40.43;22.77;;;;;;;6.35;100.00;99486.82;3507876;82;35510;-88
2022/12/23 17:03:40;;;;;;;42.93;21.67;;;;;;;6.32;100.00;99488.92;3503078;82;98746;-86
2022/12/23 17:08:42;;;;;;;32.38;19.45;;;;;;;6.32;100.00;99497.11;3511929;83;26877;-88
2022/12/23 17:13:44;;;;;;;33.00;18.10;;;;;;;6.29;100.00;99501.17;3503729;82;98644;-87
2022/12/23 17:18:49;;;;;;;38.70;20.20;;;;;;;6.27;100.00;99500.77;3513340;82;34860;-86
2022/12/23 17:23:55;;;;;;;38.57;18.43;;;;;;;6.29;100.00;99496.50;3499818;82;98521;-87
2022/12/23 17:28:56;;;;;;;94.40;44.83;;;;;;;6.29;100.00;99488.88;3509859;83;26970;-88
2022/12/23 17:33:57;;;;;;;83.23;42.43;;;;;;;6.26;100.00;99497.23;3496734;82;98724;-89
2022/12/23 17:38:58;;;;;;;88.13;43.93;;;;;;;6.27;100.00;99505.63;3509115;82;35068;-89
2022/12/23 17:43:59;;;;;;;68.23;35.07;;;;;;;6.24;100.00;99501.49;3514796;82;98789;-88
2022/12/23 17:49:00;;;;;;;73.07;37.73;;;;;;;6.22;100.00;99507.91;3521577;82;34919;-88
2022/12/23 17:54:03;;;;;;;53.77;28.30;;;;;;;6.17;100.00;99513.70;3513874;82;98711;-89
2022/12/23 17:59:04;;;;;;;47.23;25.17;;;;;;;5.98;100.00;99490.02;3516610;82;26347;-88
2022/12/23 18:04:04;;;;;;;42.10;22.17;;;;;;;6.10;100.00;99508.11;3514288;82;98511;-88
2022/12/23 18:09:05;;;;;;;37.73;21.20;;;;;;;6.10;100.00;99499.36;3518962;84;35428;-89
2022/12/23 18:14:12;;;;;;;45.17;22.30;;;;;;;6.07;100.00;99498.74;3514680;82;98830;-88
2022/12/23 18:19:19;;;;;;;46.77;26.93;;;;;;;6.11;100.00;99497.42;3495051;82;30951;-87
2022/12/23 18:24:19;;;;;;;40.90;23.15;;;;;;;6.14;100.00;99499.40;3510883;82;98557;-88
2022/12/23 18:29:20;;;;;;;36.90;20.90;;;;;;;6.14;100.00;99490.64;3521129;82;26369;-88
2022/12/23 18:34:21;;;;;;;42.17;21.93;;;;;;;6.14;100.00;99498.03;3514697;82;98725;-87
2022/12/23 18:39:22;;;;;;;35.40;19.80;;;;;;;6.12;100.00;99486.70;3521132;82;34839;-86
2022/12/23 18:44:24;;;;;;;51.27;25.30;;;;;;;6.09;100.00;99480.03;3484767;83;98617;-88
2022/12/23 18:49:25;;;;;;;65.00;32.17;;;;;;;6.06;100.00;99468.47;3511338;83;34839;-88
2022/12/23 18:54:26;;;;;;;64.83;34.63;;;;;;;6.06;100.00;99463.59;3499317;82;98409;-88
2022/12/23 18:59:28;;;;;;;70.73;38.03;;;;;;;5.99;100.00;99463.48;3501657;83;34856;-88
2022/12/23 19:04:28;;;;;;;73.37;36.10;;;;;;;5.92;100.00;99459.30;3503871;83;98589;-88
2022/12/23 19:09:29;;;;;;;82.67;42.50;;;;;;;5.95;100.00;99473.00;3505772;83;35840;-88
2022/12/23 19:14:30;;;;;;;77.90;38.37;;;;;;;5.92;100.00;99470.22;3483510;82;99106;-87
2022/12/23 19:19:31;;;;;;;72.13;36.70;;;;;;;5.88;100.00;99454.36;3507587;83;35543;-88
2022/12/23 19:24:32;;;;;;;96.90;47.07;;;;;;;5.84;100.00;99453.55;3483468;83;98500;-87
2022/12/23 19:29:33;;;;;;;91.53;47.38;;;;;;;5.86;100.00;99456.11;3501602;83;35329;-88
2022/12/23 19:34:34;;;;;;;84.87;42.73;;;;;;;5.89;100.00;99451.27;3500922;83;98342;-88
2022/12/23 19:39:35;;;;;;;92.00;48.20;;;;;;;5.91;100.00;99453.07;3505678;83;26323;-88
2022/12/23 19:44:36;;;;;;;94.35;47.55;;;;;;;5.91;100.00;99463.19;3497142;82;98505;-88
2022/12/23 19:49:37;;;;;;;96.43;48.03;;;;;;;5.90;100.00;99466.48;3507745;82;32999;-87
2022/12/23 19:54:37;;;;;;;98.70;48.40;;;;;;;5.91;100.00;99459.89;3500710;82;98625;-88
2022/12/23 19:59:38;;;;;;;100.37;48.30;;;;;;;5.91;100.00;99459.09;3509136;83;33072;-87
2022/12/23 20:04:39;;;;;;;91.73;43.23;;;;;;;5.91;100.00;99463.19;3498622;82;98893;-87
2022/12/23 20:09:40;;;;;;;93.50;46.93;;;;;;;5.93;100.00;99471.79;3507179;82;32429;-89
2022/12/23 20:14:41;;;;;;;93.70;45.92;;;;;;;5.94;100.00;99470.66;3500670;82;98542;-88
2022/12/23 20:19:42;;;;;;;96.97;49.20;;;;;;;5.96;100.00;99470.50;3510152;82;28125;-88
2022/12/23 20:24:43;;;;;;;99.03;51.03;;;;;;;5.96;100.00;99473.80;3502039;82;98825;-88
2022/12/23 20:29:43;;;;;;;91.97;42.90;;;;;;;5.95;100.00;99486.66;3509287;83;26101;-86
2022/12/23 20:34:44;;;;;;;97.13;45.40;;;;;;;5.98;100.00;99487.86;3500544;82;98656;-87
2022/12/23 20:39:45;;;;;;;84.03;40.93;;;;;;;6.00;100.00;99489.66;3503146;83;25975;-88
2022/12/23 20:44:46;;;;;;;95.67;42.40;;;;;;;6.01;100.00;99487.91;3499409;82;98830;-87
2022/12/23 20:49:47;;;;;;;88.87;43.17;;;;;;;6.02;100.00;99486.77;3507552;83;26233;-87
2022/12/23 20:54:48;;;;;;;93.65;43.50;;;;;;;6.05;100.00;99487.98;3496693;82;98992;-87
2022/12/23 20:59:49;;;;;;;81.00;37.47;;;;;;;6.07;100.00;99490.55;3506348;82;34368;-87
2022/12/23 21:04:50;;;;;;;82.47;40.13;;;;;;;6.05;100.00;99484.66;3502605;82;98823;-87
2022/12/23 21:09:51;;;;;;;91.10;43.50;;;;;;;6.05;100.00;99482.52;3500108;83;33548;-86
2022/12/23 21:14:51;;;;;;;85.53;41.70;;;;;;;6.07;100.00;99490.55;3497249;82;98715;-86
2022/12/23 21:19:52;;;;;;;75.23;38.83;;;;;;;6.07;100.00;99485.66;3508163;83;33204;-87
2022/12/23 21:24:53;;;;;;;76.17;37.53;;;;;;;6.06;100.00;99485.45;3499105;83;98560;-88
2022/12/23 21:29:54;;;;;;;73.43;36.83;;;;;;;6.05;100.00;99483.88;3507212;84;33256;-87
2022/12/23 21:34:54;;;;;;;77.80;39.93;;;;;;;6.06;100.00;99476.66;3498421;82;98647;-86
2022/12/23 21:39:55;;;;;;;75.47;40.35;;;;;;;6.06;100.00;99475.89;3508513;83;32771;-87
2022/12/23 21:44:56;;;;;;;71.37;39.73;;;;;;;6.06;100.00;99471.20;3488216;82;98614;-87
2022/12/23 21:49:57;;;;;;;71.07;39.00;;;;;;;6.05;100.00;99455.97;3505764;82;32309;-87
2022/12/23 21:54:58;;;;;;;72.00;39.33;;;;;;;6.05;100.00;99456.56;3501120;84;98852;-87
2022/12/23 21:59:59;;;;;;;72.47;38.07;;;;;;;6.05;100.00;99458.70;3504718;83;32309;-87
2022/12/23 22:04:59;;;;;;;74.12;40.17;;;;;;;6.06;100.00;99455.41;3480690;83;98708;-87
2022/12/23 22:10:00;;;;;;;84.20;42.00;;;;;;;6.09;100.00;99450.55;3508863;83;31613;-86
2022/12/23 22:15:01;;;;;;;66.47;37.13;;;;;;;6.11;100.00;99444.93;3500606;82;98502;-87
2022/12/23 22:20:02;;;;;;;73.33;38.03;;;;;;;6.13;100.00;99442.63;3509896;83;30072;-86
2022/12/23 22:25:04;;;;;;;76.67;40.45;;;;;;;6.11;100.00;99446.30;3501634;84;98824;-86
2022/12/23 22:30:07;;;;;;;70.78;37.78;;;;;;;6.08;100.00;99452.52;3502379;84;31038;-87
2022/12/23 22:35:08;;;;;;;70.80;37.67;;;;;;;6.05;100.00;99441.55;3497995;82;98278;-88
2022/12/23 22:40:10;;;;;;;69.57;37.70;;;;;;;6.01;100.00;99436.02;3506924;83;35425;-88
2022/12/23 22:45:12;;;;;;;71.13;37.17;;;;;;;6.04;100.00;99433.92;3510835;82;98473;-88
2022/12/23 22:50:13;;;;;;;73.42;37.85;;;;;;;6.07;100.00;99439.22;3520075;82;29833;-87
2022/12/23 22:55:14;;;;;;;69.70;36.23;;;;;;;6.08;100.00;99435.33;3517119;82;98647;-87
2022/12/23 23:00:15;;;;;;;66.97;35.47;;;;;;;6.05;100.00;99431.98;3523887;82;34346;-87
2022/12/23 23:05:16;;;;;;;67.37;34.60;;;;;;;6.04;100.00;99438.02;3511813;82;98662;-87
2022/12/23 23:10:17;;;;;;;73.60;37.93;;;;;;;6.03;100.00;99433.72;3525120;82;35793;-86
2022/12/23 23:15:18;;;;;;;66.57;36.43;;;;;;;6.01;100.00;99421.59;3488538;82;98360;-86
2022/12/23 23:20:19;;;;;;;68.17;34.73;;;;;;;5.97;100.00;99413.36;3525236;82;35965;-85
2022/12/23 23:25:21;;;;;;;64.63;32.47;;;;;;;5.92;100.00;99416.98;3516192;82;98346;-84
2022/12/23 23:30:22;;;;;;;59.07;29.43;;;;;;;5.89;100.00;99418.50;3516119;82;34875;-84
2022/12/23 23:35:23;;;;;;;61.53;29.67;;;;;;;5.86;100.00;99417.09;3516982;82;98528;-85
2022/12/23 23:40:23;;;;;;;60.53;28.13;;;;;;;5.82;100.00;99417.05;3522327;82;34911;-85
2022/12/23 23:45:26;;;;;;;57.03;26.80;;;;;;;5.78;100.00;99418.14;3495378;83;98702;-85
2022/12/23 23:50:26;;;;;;;49.03;25.03;;;;;;;5.75;100.00;99420.22;3496715;83;35113;-84
2022/12/23 23:55:27;;;;;;;48.60;23.77;;;;;;;5.73;100.00;99412.99;3485834;82;98524;-84
